Time;durP1;ratioP1;P1;durP2;ratioP2;P2;SDS_P1;SDS_P2;PMS_P1;PMS_P2;Temp;Humidity;BMP_temperature;BMP_pressure;BME280_temperature;BME280_humidity;BME280_pressure;Samples;Min_cycle;Max_cycle;Signal;HPM_P1;HPM_P2
2022/11/26 00:01:04;;;;;;;96.80;51.53;;;1.00;99.90;0.00;100953;;;;568004;251;24181;-81
2022/11/26 00:03:32;;;;;;;95.20;50.50;;;1.00;99.90;0.10;100965;;;;567337;252;24082;-82
2022/11/26 00:05:59;;;;;;;92.83;48.60;;;1.10;99.90;0.10;100961;;;;567588;251;24093;-81
2022/11/26 00:08:30;;;;;;;100.80;50.13;;;1.10;99.90;0.20;100963;;;;567675;251;24123;-78
2022/11/26 00:10:58;;;;;;;92.40;48.60;;;1.10;99.90;0.20;100964;;;;567452;252;24097;-83
2022/11/26 00:13:27;;;;;;;92.10;46.63;;;1.20;99.90;0.20;100958;;;;567642;249;24094;-84
2022/11/26 00:15:58;;;;;;;94.00;46.80;;;1.20;99.90;0.20;100969;;;;567392;252;24101;-81
2022/11/26 00:18:28;;;;;;;93.57;46.20;;;1.20;99.90;0.20;100972;;;;567505;251;24108;-82
2022/11/26 00:20:56;;;;;;;92.30;44.27;;;1.20;99.90;0.30;100966;;;;567441;251;24103;-83
2022/11/26 00:23:24;;;;;;;97.17;46.77;;;1.30;99.90;0.30;100975;;;;567344;253;24145;-80
2022/11/26 00:25:53;;;;;;;93.43;44.30;;;1.30;99.90;0.30;100969;;;;567356;252;24095;-81
2022/11/26 00:28:39;;;;;;;97.43;45.07;;;1.30;99.90;0.30;100979;;;;567290;252;24114;-81
2022/11/26 00:31:07;;;;;;;90.80;41.97;;;1.40;99.90;0.30;100970;;;;567070;252;26226;-79
2022/11/26 00:33:35;;;;;;;88.37;41.00;;;1.30;99.90;0.40;100974;;;;567007;252;24100;-81
2022/11/26 00:36:25;;;;;;;84.43;43.23;;;1.50;99.90;0.40;100967;;;;567460;252;24112;-79
2022/11/26 00:38:52;;;;;;;87.67;43.03;;;1.40;99.90;0.40;100976;;;;567308;252;25196;-81
2022/11/26 00:41:17;;;;;;;84.50;40.93;;;1.40;99.90;0.40;100974;;;;567169;253;24101;-82
2022/11/26 00:43:49;;;;;;;90.33;43.17;;;1.40;99.90;0.50;100970;;;;567863;251;24129;-81
2022/11/26 00:46:19;;;;;;;88.13;42.30;;;1.40;99.90;0.50;100975;;;;567156;253;24112;-80
2022/11/26 00:48:46;;;;;;;86.23;41.63;;;1.50;99.90;0.50;100982;;;;567059;253;24108;-82
2022/11/26 00:51:22;;;;;;;81.50;40.47;;;1.50;99.90;0.50;100979;;;;567279;253;24172;-79
2022/11/26 00:53:51;;;;;;;80.07;39.73;;;1.50;99.90;0.50;100972;;;;567417;252;24152;-78
2022/11/26 00:56:23;;;;;;;84.13;40.33;;;1.50;99.90;0.60;100980;;;;568581;251;24185;-80
2022/11/26 00:58:50;;;;;;;93.07;40.60;;;1.60;99.90;0.60;100979;;;;567967;252;24108;-81
2022/11/26 01:01:20;;;;;;;78.60;37.87;;;1.60;99.90;0.60;100983;;;;567753;251;24105;-80
2022/11/26 01:03:52;;;;;;;76.93;37.87;;;1.60;99.90;0.60;100985;;;;567987;253;24110;-81
2022/11/26 01:06:22;;;;;;;82.77;37.90;;;1.60;99.90;0.60;100981;;;;567826;252;24122;-80
2022/11/26 01:08:50;;;;;;;73.47;38.20;;;1.60;99.90;0.70;100974;;;;568010;251;24119;-81
2022/11/26 01:11:18;;;;;;;73.23;38.47;;;1.70;99.90;0.70;100971;;;;568073;251;24175;-78
2022/11/26 01:13:46;;;;;;;73.03;36.07;;;1.60;99.90;0.70;100981;;;;567754;249;24129;-84
2022/11/26 01:16:22;;;;;;;72.57;38.33;;;1.70;99.90;0.70;100982;;;;567744;251;25150;-80
2022/11/26 01:18:50;;;;;;;81.57;45.47;;;1.70;99.90;0.70;100984;;;;554969;258;24155;-79
2022/11/26 01:21:18;;;;;;;69.57;36.60;;;1.70;99.90;0.70;100981;;;;567805;251;24105;-79
2022/11/26 01:23:46;;;;;;;69.90;36.07;;;1.70;99.90;0.70;100980;;;;567717;251;24195;-79
2022/11/26 01:26:22;;;;;;;72.73;36.57;;;1.70;99.90;0.70;100976;;;;567698;251;24098;-79
2022/11/26 01:28:50;;;;;;;75.43;36.87;;;1.70;99.90;0.70;100978;;;;567739;251;24114;-79
2022/11/26 01:31:24;;;;;;;81.87;37.67;;;1.70;99.90;0.80;100985;;;;567627;251;24112;-77
2022/11/26 01:33:52;;;;;;;72.60;36.57;;;1.80;99.90;0.80;100988;;;;567289;251;24151;-81
2022/11/26 01:36:30;;;;;;;65.20;35.43;;;1.80;99.90;0.80;100992;;;;567286;252;24107;-79
2022/11/26 01:38:56;;;;;;;70.87;35.70;;;1.80;99.90;0.80;100997;;;;555345;258;24136;-80
2022/11/26 01:41:33;;;;;;;71.53;35.83;;;1.80;99.90;0.80;100990;;;;567326;250;24127;-80
2022/11/26 01:44:02;;;;;;;74.60;35.73;;;1.80;99.90;0.80;100992;;;;567451;252;25131;-78
2022/11/26 01:46:33;;;;;;;71.80;36.70;;;1.80;99.90;0.90;100996;;;;567498;252;24102;-78
2022/11/26 01:49:28;;;;;;;72.43;34.33;;;1.80;99.90;0.90;101000;;;;566867;253;24149;-78
2022/11/26 01:52:04;;;;;;;73.33;37.97;;;1.90;99.90;0.90;101003;;;;567291;252;24098;-78
2022/11/26 01:54:32;;;;;;;76.73;38.37;;;1.90;99.90;0.90;101007;;;;567522;252;25139;-78
2022/11/26 01:57:09;;;;;;;74.07;37.70;;;1.90;99.90;1.00;101006;;;;567247;252;24097;-77
2022/11/26 01:59:37;;;;;;;65.00;35.83;;;1.90;99.90;0.90;101005;;;;566992;252;24140;-77
2022/11/26 02:02:05;;;;;;;69.27;35.80;;;1.90;99.90;0.90;101008;;;;567155;253;24097;-77
2022/11/26 02:04:35;;;;;;;69.83;34.90;;;1.90;99.90;1.00;101006;;;;567269;252;24108;-78
2022/11/26 02:07:06;;;;;;;70.33;34.90;;;1.90;99.90;1.00;101012;;;;567482;251;24125;-77
2022/11/26 02:09:35;;;;;;;75.70;38.17;;;1.90;99.90;1.00;101005;;;;568281;251;24089;-77
2022/11/26 02:12:03;;;;;;;67.50;36.03;;;1.90;99.90;0.90;101007;;;;567770;252;24089;-77
2022/11/26 02:14:33;;;;;;;72.50;36.50;;;1.90;99.90;0.90;101009;;;;567475;249;24157;-78
2022/11/26 02:17:15;;;;;;;73.37;35.37;;;1.90;99.90;1.00;101013;;;;567397;252;24125;-81
2022/11/26 02:20:10;;;;;;;68.37;36.83;;;1.90;99.90;1.00;101019;;;;567792;251;24128;-77
2022/11/26 02:23:08;;;;;;;66.37;34.90;;;1.90;99.90;1.00;101015;;;;567406;252;24096;-78
2022/11/26 02:25:48;;;;;;;67.63;36.37;;;2.00;99.90;1.00;101009;;;;567594;251;24321;-77
2022/11/26 02:28:41;;;;;;;71.63;34.47;;;2.00;99.90;1.00;101019;;;;567718;251;24144;-77
2022/11/26 02:31:11;;;;;;;67.03;36.93;;;2.00;99.90;1.00;101016;;;;567525;251;24145;-77
2022/11/26 02:33:57;;;;;;;65.83;35.23;;;2.00;99.90;1.10;101014;;;;567506;251;24156;-77
2022/11/26 02:36:31;;;;;;;58.30;31.90;;;2.10;99.90;1.10;101009;;;;567629;252;24115;-78
2022/11/26 02:39:11;;;;;;;64.17;32.57;;;2.00;99.90;1.10;101010;;;;567411;252;24131;-77
2022/11/26 02:41:45;;;;;;;50.97;31.00;;;2.10;99.90;1.10;101016;;;;567478;251;24111;-77
2022/11/26 02:44:13;;;;;;;53.37;31.97;;;2.10;99.90;1.20;101012;;;;567635;251;24137;-77
2022/11/26 02:46:41;;;;;;;52.80;29.20;;;2.10;99.90;1.20;101015;;;;567368;251;24112;-77
2022/11/26 02:49:08;;;;;;;52.87;29.67;;;2.10;99.90;1.20;101013;;;;567203;252;24128;-77
2022/11/26 02:51:36;;;;;;;52.20;29.63;;;2.10;99.90;1.20;101015;;;;567176;252;24113;-77
2022/11/26 02:54:08;;;;;;;53.23;29.73;;;2.10;99.90;1.20;101017;;;;567213;252;24096;-78
2022/11/26 02:56:32;;;;;;;58.93;33.07;;;2.20;99.90;1.30;101019;;;;566862;253;24100;-77
2022/11/26 02:59:04;;;;;;;60.93;36.97;;;2.20;99.90;1.30;101012;;;;567246;252;24109;-77
2022/11/26 03:01:30;;;;;;;54.43;29.87;;;2.20;99.90;1.30;101015;;;;567102;252;24108;-78
2022/11/26 03:04:00;;;;;;;50.20;29.17;;;2.30;99.90;1.30;101018;;;;565728;253;24118;-79
2022/11/26 03:06:24;;;;;;;51.13;26.97;;;2.20;99.90;1.30;101024;;;;566904;253;24092;-79
2022/11/26 03:08:53;;;;;;;53.70;27.80;;;2.20;99.90;1.30;101029;;;;567088;253;24100;-77
2022/11/26 03:11:21;;;;;;;52.20;28.87;;;2.30;99.90;1.30;101032;;;;567068;252;24092;-78
2022/11/26 03:13:49;;;;;;;49.30;27.53;;;2.20;99.90;1.30;101029;;;;567207;249;24162;-78
2022/11/26 03:16:17;;;;;;;54.13;27.60;;;2.30;99.90;1.30;101033;;;;567387;251;24098;-77
2022/11/26 03:18:45;;;;;;;45.43;27.00;;;2.30;99.90;1.30;101040;;;;568049;251;24168;-77
2022/11/26 03:21:13;;;;;;;49.60;26.90;;;2.30;99.90;1.30;101039;;;;568352;251;24109;-78
2022/11/26 03:23:41;;;;;;;50.30;27.17;;;2.30;99.90;1.30;101036;;;;568062;251;24126;-78
2022/11/26 03:26:09;;;;;;;50.90;29.07;;;2.30;99.90;1.30;101039;;;;567995;251;24153;-80
2022/11/26 03:28:37;;;;;;;51.63;29.03;;;2.20;99.90;1.30;101043;;;;567758;251;24154;-82
2022/11/26 03:31:05;;;;;;;52.23;28.27;;;2.20;99.90;1.20;101037;;;;567728;251;24171;-81
2022/11/26 03:33:33;;;;;;;53.73;28.37;;;2.20;99.90;1.20;101048;;;;567710;251;25168;-77
2022/11/26 03:36:01;;;;;;;53.40;28.60;;;2.20;99.90;1.20;101044;;;;567678;251;24130;-78
2022/11/26 03:38:29;;;;;;;47.57;27.30;;;2.20;99.90;1.20;101045;;;;567526;251;24112;-78
2022/11/26 03:41:01;;;;;;;54.97;27.83;;;2.10;99.90;1.20;101058;;;;567492;251;24115;-78
2022/11/26 03:43:26;;;;;;;56.00;27.73;;;2.10;99.90;1.20;101063;;;;567117;251;24155;-78
2022/11/26 03:45:54;;;;;;;55.67;31.17;;;2.20;99.90;1.20;101051;;;;567942;251;24135;-78
2022/11/26 03:48:21;;;;;;;53.20;29.40;;;2.20;99.90;1.20;101067;;;;567554;251;24105;-77
2022/11/26 03:50:49;;;;;;;56.10;28.67;;;2.20;99.90;1.20;101058;;;;567669;251;24167;-78
2022/11/26 03:53:18;;;;;;;50.90;28.23;;;2.20;99.90;1.20;101068;;;;567458;251;24090;-79
2022/11/26 03:55:49;;;;;;;52.43;27.77;;;2.20;99.90;1.20;101061;;;;567193;251;24101;-79
2022/11/26 03:58:14;;;;;;;51.13;28.03;;;2.20;99.90;1.20;101064;;;;566772;253;24096;-79
2022/11/26 04:00:42;;;;;;;43.37;25.87;;;2.20;99.90;1.20;101067;;;;567207;252;24128;-78
2022/11/26 04:03:10;;;;;;;50.10;28.70;;;2.20;99.90;1.30;101064;;;;567664;251;25172;-78
2022/11/26 04:05:38;;;;;;;53.60;28.67;;;2.20;99.90;1.30;101059;;;;567306;251;24142;-78
2022/11/26 04:08:06;;;;;;;54.37;28.93;;;2.20;99.90;1.30;101059;;;;567213;252;24100;-78
2022/11/26 04:10:34;;;;;;;50.83;27.73;;;2.30;99.90;1.30;101061;;;;567209;252;25142;-78
2022/11/26 04:13:02;;;;;;;49.40;26.73;;;2.30;99.90;1.30;101066;;;;567210;249;24147;-81
2022/11/26 04:15:30;;;;;;;48.77;27.03;;;2.30;99.90;1.30;101070;;;;567405;251;24104;-83
2022/11/26 04:17:57;;;;;;;52.23;28.30;;;2.30;99.90;1.30;101075;;;;567189;252;24122;-83
2022/11/26 04:20:25;;;;;;;54.90;29.27;;;2.30;99.90;1.30;101079;;;;567459;251;24105;-78
2022/11/26 04:22:53;;;;;;;51.27;29.03;;;2.30;99.90;1.30;101077;;;;567221;252;24193;-78
2022/11/26 04:25:21;;;;;;;52.07;29.33;;;2.30;99.90;1.30;101084;;;;567164;252;24092;-78
2022/11/26 04:27:49;;;;;;;52.17;27.70;;;2.30;99.90;1.40;101085;;;;567177;252;24127;-79
2022/11/26 04:30:17;;;;;;;51.03;27.93;;;2.30;99.90;1.40;101095;;;;568005;251;24121;-79
2022/11/26 04:32:45;;;;;;;53.23;29.27;;;2.30;99.90;1.40;101075;;;;568352;251;24125;-79
2022/11/26 04:35:13;;;;;;;53.50;31.00;;;2.30;99.90;1.40;101085;;;;568079;251;24110;-80
2022/11/26 04:37:41;;;;;;;55.90;30.20;;;2.30;99.90;1.40;101084;;;;567931;251;24123;-82
2022/11/26 04:40:10;;;;;;;48.53;28.43;;;2.30;99.90;1.40;101095;;;;567751;251;24152;-84
2022/11/26 04:42:37;;;;;;;54.43;28.33;;;2.40;99.90;1.40;101085;;;;567687;251;24111;-78
2022/11/26 04:45:08;;;;;;;46.47;28.33;;;2.40;99.90;1.40;101094;;;;567902;251;24125;-78
2022/11/26 04:47:33;;;;;;;49.80;28.10;;;2.40;99.90;1.40;101099;;;;567606;252;24155;-79
2022/11/26 04:50:01;;;;;;;55.10;28.73;;;2.40;99.90;1.50;101094;;;;567673;251;24113;-79
2022/11/26 04:52:29;;;;;;;51.23;27.93;;;2.40;99.90;1.50;101094;;;;567464;251;25213;-77
2022/11/26 04:54:57;;;;;;;46.20;27.73;;;2.40;99.90;1.50;101105;;;;567460;251;24104;-78
2022/11/26 04:57:25;;;;;;;48.10;28.07;;;2.40;99.90;1.50;101100;;;;567476;251;24101;-76
2022/11/26 04:59:53;;;;;;;46.97;27.53;;;2.50;99.90;1.50;101102;;;;567472;251;24109;-78
2022/11/26 05:02:20;;;;;;;50.53;28.00;;;2.50;99.90;1.50;101105;;;;567454;251;24108;-81
2022/11/26 05:04:48;;;;;;;52.17;28.17;;;2.50;99.90;1.50;101102;;;;567489;251;24113;-82
2022/11/26 05:07:19;;;;;;;51.33;27.00;;;2.50;99.90;1.50;101110;;;;567228;251;24100;-78
2022/11/26 05:09:44;;;;;;;47.10;26.97;;;2.50;99.90;1.50;101109;;;;566859;253;24088;-79
2022/11/26 05:12:13;;;;;;;49.53;27.73;;;2.50;99.90;1.50;101118;;;;567236;252;24127;-79
2022/11/26 05:14:44;;;;;;;46.53;27.47;;;2.50;99.90;1.60;101124;;;;567189;249;24152;-83
2022/11/26 05:17:08;;;;;;;49.73;28.63;;;2.50;99.90;1.60;101123;;;;566791;253;24088;-82
2022/11/26 05:19:36;;;;;;;51.17;27.30;;;2.50;99.90;1.60;101126;;;;567253;252;24097;-82
2022/11/26 05:22:05;;;;;;;45.17;26.23;;;2.50;99.90;1.60;101121;;;;567249;252;24095;-80
2022/11/26 05:24:37;;;;;;;47.40;26.83;;;2.50;99.90;1.60;101126;;;;567229;252;24109;-81
2022/11/26 05:27:01;;;;;;;53.67;28.40;;;2.60;99.90;1.60;101116;;;;567355;251;24084;-79
2022/11/26 05:29:32;;;;;;;51.97;27.83;;;2.60;99.90;1.60;101127;;;;567268;252;24113;-81
2022/11/26 05:31:57;;;;;;;50.67;27.53;;;2.50;99.90;1.60;101131;;;;567198;253;24080;-83
2022/11/26 05:34:28;;;;;;;49.97;28.50;;;2.60;99.90;1.60;101132;;;;567325;252;24091;-82
2022/11/26 05:36:53;;;;;;;52.83;29.20;;;2.50;99.90;1.60;101132;;;;567025;252;24121;-84
2022/11/26 05:39:21;;;;;;;45.33;26.77;;;2.60;99.90;1.60;101126;;;;567278;252;24109;-84
2022/11/26 05:41:52;;;;;;;48.50;27.40;;;2.60;99.90;1.60;101126;;;;568018;251;24183;-84
2022/11/26 05:44:20;;;;;;;52.53;27.77;;;2.60;99.90;1.60;101134;;;;568321;252;24101;-82
2022/11/26 05:46:45;;;;;;;52.50;28.20;;;2.60;99.90;1.70;101132;;;;568135;252;24085;-83
2022/11/26 05:49:16;;;;;;;56.43;29.37;;;2.60;99.90;1.60;101134;;;;567963;251;24155;-82
2022/11/26 05:51:40;;;;;;;50.80;29.33;;;2.60;99.90;1.60;101136;;;;567432;252;24172;-81
2022/11/26 05:54:08;;;;;;;50.43;27.57;;;2.60;99.90;1.60;101142;;;;567701;251;24119;-78
2022/11/26 05:56:36;;;;;;;46.97;27.33;;;2.60;99.90;1.70;101136;;;;567598;252;24122;-78
2022/11/26 05:59:05;;;;;;;45.00;26.23;;;2.60;99.90;1.70;101148;;;;567694;251;24128;-77
2022/11/26 06:01:36;;;;;;;45.07;26.90;;;2.60;99.90;1.70;101149;;;;567492;251;24119;-78
2022/11/26 06:04:03;;;;;;;44.40;27.00;;;2.60;99.90;1.70;101147;;;;567000;253;24113;-81
2022/11/26 06:06:32;;;;;;;48.17;26.03;;;2.60;99.90;1.70;101164;;;;567263;252;24092;-78
2022/11/26 06:08:57;;;;;;;45.40;25.57;;;2.60;99.90;1.70;101169;;;;567065;252;24113;-78
2022/11/26 06:11:25;;;;;;;41.47;25.77;;;2.60;99.90;1.70;101172;;;;567472;251;24116;-76
2022/11/26 06:13:53;;;;;;;48.40;26.33;;;2.60;99.90;1.70;101174;;;;567455;249;24097;-78
2022/11/26 06:16:21;;;;;;;45.90;26.50;;;2.60;99.90;1.70;101175;;;;567460;251;24175;-79
2022/11/26 06:18:49;;;;;;;40.57;25.10;;;2.60;99.90;1.70;101174;;;;567207;251;24141;-78
2022/11/26 06:21:17;;;;;;;49.33;32.35;;;2.70;99.90;1.70;101178;;;;562309;252;35267;-78
2022/11/26 06:23:45;;;;;;;41.30;18.43;;;2.60;99.90;1.70;101185;;;;567235;252;24100;-79
2022/11/26 06:26:16;;;;;;;32.50;15.83;;;2.60;99.90;1.70;101181;;;;567228;252;24108;-78
2022/11/26 06:28:42;;;;;;;32.17;17.90;;;2.70;99.90;1.70;101189;;;;566971;253;24116;-78
2022/11/26 06:31:10;;;;;;;32.23;16.30;;;2.70;99.90;1.80;101188;;;;567191;252;24104;-79
2022/11/26 06:33:37;;;;;;;29.83;15.70;;;2.70;99.90;1.80;101188;;;;567239;252;24108;-79
2022/11/26 06:36:05;;;;;;;33.37;16.13;;;2.70;99.90;1.80;101189;;;;567207;252;24088;-80
2022/11/26 06:38:37;;;;;;;30.57;14.20;;;2.70;99.90;1.80;101184;;;;567205;252;24112;-78
2022/11/26 06:41:02;;;;;;;30.07;16.20;;;2.80;99.90;1.80;101193;;;;566907;252;24146;-78
2022/11/26 06:43:30;;;;;;;30.00;16.07;;;2.70;99.90;1.80;101187;;;;566695;253;24096;-78
2022/11/26 06:46:01;;;;;;;32.43;16.17;;;2.80;99.90;1.90;101186;;;;567180;252;24150;-77
2022/11/26 06:48:31;;;;;;;31.87;17.43;;;2.80;99.90;1.90;101202;;;;566990;252;24094;-78
2022/11/26 06:50:56;;;;;;;27.30;15.43;;;2.80;99.90;1.90;101199;;;;567100;252;24138;-78
2022/11/26 06:53:25;;;;;;;31.43;14.93;;;2.90;99.90;1.90;101203;;;;567946;251;24135;-78
2022/11/26 06:55:53;;;;;;;33.00;15.83;;;2.80;99.90;1.90;101208;;;;568332;251;24099;-78
2022/11/26 06:58:21;;;;;;;30.30;16.33;;;2.90;99.90;1.90;101211;;;;568075;251;24139;-78
2022/11/26 07:00:49;;;;;;;30.87;13.93;;;2.90;99.90;2.00;101210;;;;567879;252;24093;-78
2022/11/26 07:03:16;;;;;;;31.47;14.83;;;2.90;99.90;2.00;101207;;;;567771;251;25159;-78
2022/11/26 07:05:45;;;;;;;29.43;15.03;;;2.90;99.90;2.00;101215;;;;567740;251;24188;-77
2022/11/26 07:08:13;;;;;;;31.33;15.73;;;2.90;99.90;2.00;101218;;;;567706;251;25139;-79
2022/11/26 07:10:41;;;;;;;24.73;13.93;;;2.90;99.90;2.00;101209;;;;567708;251;24128;-78
2022/11/26 07:13:09;;;;;;;26.10;14.37;;;2.90;99.90;2.00;101225;;;;567508;249;24106;-81
2022/11/26 07:15:37;;;;;;;30.30;15.97;;;3.00;99.90;2.00;101213;;;;567560;251;24123;-82
2022/11/26 07:18:05;;;;;;;29.13;14.13;;;2.90;99.90;2.10;101223;;;;567476;251;24120;-83
2022/11/26 07:20:33;;;;;;;30.57;14.87;;;3.00;99.90;2.10;101221;;;;567538;251;24118;-82
2022/11/26 07:23:01;;;;;;;29.83;15.27;;;3.00;99.90;2.10;101220;;;;567532;251;24097;-81
2022/11/26 07:25:33;;;;;;;32.83;15.60;;;3.00;99.90;2.10;101224;;;;567600;251;24118;-81
2022/11/26 07:27:58;;;;;;;27.80;14.93;;;3.00;99.90;2.10;101228;;;;567397;252;24081;-83
2022/11/26 07:30:25;;;;;;;28.00;14.60;;;3.00;99.90;2.10;101225;;;;567373;251;24110;-83
2022/11/26 07:32:53;;;;;;;29.30;13.70;;;3.10;99.90;2.10;101224;;;;567367;252;24105;-81
2022/11/26 07:35:22;;;;;;;42.60;23.40;;;3.10;99.90;2.20;101229;;;;567315;252;24174;-80
2022/11/26 07:37:50;;;;;;;30.53;15.80;;;3.10;99.90;2.30;101231;;;;567299;252;24111;-83
2022/11/26 07:40:18;;;;;;;33.80;16.60;;;3.20;99.90;2.30;101238;;;;567321;252;24124;-83
2022/11/26 07:42:49;;;;;;;30.27;15.63;;;3.20;99.90;2.30;101245;;;;567332;252;24115;-83
2022/11/26 07:45:16;;;;;;;35.07;15.70;;;3.20;99.90;2.40;101247;;;;567410;252;24115;-83
2022/11/26 07:47:44;;;;;;;34.47;16.20;;;3.30;99.90;2.30;101251;;;;567852;251;25143;-81
2022/11/26 07:50:12;;;;;;;30.53;14.90;;;3.30;99.90;2.40;101255;;;;567503;251;24114;-81
2022/11/26 07:52:40;;;;;;;32.47;15.60;;;3.30;99.90;2.40;101253;;;;567322;252;24111;-82
2022/11/26 07:55:08;;;;;;;27.23;14.83;;;3.30;99.90;2.40;101249;;;;567351;252;24092;-81
2022/11/26 07:57:36;;;;;;;26.37;14.03;;;3.30;99.90;2.40;101249;;;;567390;252;24117;-82
2022/11/26 08:00:05;;;;;;;25.87;15.30;;;3.30;99.90;2.40;101265;;;;567342;253;24113;-81
2022/11/26 08:02:33;;;;;;;29.03;14.90;;;3.30;99.90;2.40;101268;;;;567417;252;24096;-82
2022/11/26 08:05:01;;;;;;;32.53;16.07;;;3.40;99.90;2.50;101267;;;;568405;251;24121;-82
2022/11/26 08:07:29;;;;;;;28.33;16.27;;;3.40;99.90;2.50;101272;;;;568602;251;24127;-81
2022/11/26 08:09:56;;;;;;;27.77;14.47;;;3.40;99.90;2.50;101266;;;;568208;251;24101;-81
2022/11/26 08:12:28;;;;;;;28.97;14.53;;;3.40;99.90;2.50;101275;;;;568084;249;24148;-80
2022/11/26 08:14:52;;;;;;;25.80;14.70;;;3.40;99.90;2.60;101272;;;;567859;252;24145;-82
2022/11/26 08:17:20;;;;;;;23.07;13.00;;;3.50;99.90;2.60;101274;;;;568006;251;24136;-83
2022/11/26 08:19:48;;;;;;;34.00;15.97;;;3.50;99.90;2.60;101280;;;;568071;251;24141;-83
2022/11/26 08:22:17;;;;;;;24.53;14.70;;;3.60;99.90;2.70;101269;;;;568109;251;24105;-82
2022/11/26 08:24:45;;;;;;;26.40;13.70;;;3.60;99.90;2.70;101283;;;;567919;251;24104;-83
2022/11/26 08:27:13;;;;;;;24.67;13.77;;;3.60;99.90;2.80;101293;;;;568070;251;24150;-83
2022/11/26 08:29:40;;;;;;;30.37;15.90;;;3.70;99.90;2.80;101292;;;;568008;251;24118;-84
2022/11/26 08:32:08;;;;;;;27.43;13.93;;;3.70;99.90;2.90;101286;;;;567962;251;24116;-82
2022/11/26 08:34:37;;;;;;;31.40;14.13;;;3.80;99.90;2.90;101299;;;;568253;251;24147;-83
2022/11/26 08:37:05;;;;;;;28.20;13.73;;;3.80;99.90;3.00;101302;;;;567814;251;24112;-84
2022/11/26 08:39:35;;;;;;;38.30;21.23;;;3.80;99.90;3.00;101290;;;;562939;251;35335;-84
2022/11/26 08:42:03;;;;;;;29.73;15.90;;;3.90;99.90;3.20;101299;;;;567408;251;24125;-79
2022/11/26 08:44:31;;;;;;;26.03;13.90;;;4.00;99.90;3.30;101305;;;;567438;252;24126;-84
2022/11/26 08:46:59;;;;;;;23.33;13.90;;;4.20;99.90;3.40;101293;;;;567499;252;24101;-83
2022/11/26 08:49:27;;;;;;;23.13;14.50;;;4.30;99.90;3.40;101297;;;;568084;251;24093;-83
2022/11/26 08:51:56;;;;;;;25.77;13.10;;;4.30;99.90;3.40;101306;;;;567558;251;24099;-79
2022/11/26 08:54:23;;;;;;;25.77;13.47;;;4.30;99.90;3.50;101309;;;;567229;253;24105;-83
2022/11/26 08:56:55;;;;;;;27.70;15.07;;;4.40;99.90;3.50;101313;;;;567520;252;24134;-82
2022/11/26 08:59:24;;;;;;;24.13;13.83;;;4.40;99.90;3.50;101308;;;;567248;251;24104;-82
2022/11/26 09:01:51;;;;;;;27.63;13.63;;;4.40;99.90;3.50;101319;;;;566979;253;24116;-78
2022/11/26 09:04:15;;;;;;;24.97;13.83;;;4.40;99.90;3.40;101310;;;;567294;252;24108;-81
2022/11/26 09:06:43;;;;;;;27.83;15.23;;;4.40;99.90;3.50;101321;;;;567789;252;24142;-83
2022/11/26 09:09:17;;;;;;;25.60;14.47;;;4.40;99.90;3.40;101316;;;;567587;252;24094;-84
2022/11/26 09:11:48;;;;;;;23.20;13.43;;;4.30;99.90;3.40;101315;;;;567545;251;24123;-84
2022/11/26 09:14:16;;;;;;;24.60;13.50;;;4.30;99.90;3.30;101319;;;;567371;249;24111;-84
2022/11/26 09:16:47;;;;;;;24.33;14.43;;;4.20;99.90;3.30;101315;;;;568347;251;24100;-83
2022/11/26 09:19:15;;;;;;;29.25;18.58;;;4.20;99.90;3.30;101315;;;;563198;251;35608;-84
2022/11/26 09:21:40;;;;;;;28.27;15.73;;;4.20;99.90;3.30;101328;;;;567798;252;24108;-83
2022/11/26 09:24:09;;;;;;;29.30;14.40;;;4.30;99.90;3.40;101311;;;;568065;251;24117;-81
2022/11/26 09:26:36;;;;;;;21.40;13.30;;;4.20;99.90;3.50;101317;;;;567838;251;24140;-81
2022/11/26 09:29:05;;;;;;;24.33;12.83;;;4.30;99.90;3.50;101328;;;;567833;251;24218;-78
2022/11/26 09:31:32;;;;;;;23.73;13.63;;;4.40;99.90;3.60;101313;;;;567769;251;24085;-79
2022/11/26 09:34:01;;;;;;;31.03;13.10;;;4.50;99.90;3.60;101325;;;;567683;251;24102;-82
2022/11/26 09:36:31;;;;;;;32.83;17.97;;;4.50;99.90;3.70;101321;;;;567355;252;24078;-78
2022/11/26 09:38:59;;;;;;;23.97;15.67;;;4.50;99.90;3.70;101321;;;;567507;251;24113;-78
2022/11/26 09:41:39;;;;;;;27.60;14.43;;;4.60;99.90;3.70;101330;;;;567492;251;24108;-79
2022/11/26 09:44:15;;;;;;;24.17;13.40;;;4.70;99.90;3.70;101334;;;;567563;251;24101;-78
2022/11/26 09:47:10;;;;;;;25.73;15.00;;;4.70;99.90;3.80;101334;;;;567382;252;24114;-80
2022/11/26 09:50:12;;;;;;;28.67;15.30;;;4.80;99.90;3.90;101345;;;;567910;251;24114;-78
2022/11/26 09:52:43;;;;;;;29.33;15.20;;;4.70;99.90;3.90;101345;;;;567166;252;24120;-78
2022/11/26 09:55:25;;;;;;;31.43;16.70;;;4.80;99.90;3.90;101346;;;;567288;252;24138;-80
2022/11/26 09:58:14;;;;;;;25.83;14.77;;;4.80;99.90;4.00;101347;;;;567238;252;24145;-78
2022/11/26 10:00:42;;;;;;;24.10;14.57;;;4.90;99.90;4.00;101347;;;;567221;252;24113;-81
2022/11/26 10:03:22;;;;;;;31.07;15.23;;;4.90;99.90;4.00;101342;;;;567028;253;24164;-79
2022/11/26 10:06:08;;;;;;;22.20;14.47;;;4.90;99.90;4.10;101343;;;;567228;252;24108;-80
2022/11/26 10:09:31;;;;;;;31.23;15.00;;;4.90;99.90;4.20;101338;;;;567246;252;24116;-78
2022/11/26 10:12:24;;;;;;;23.97;14.47;;;5.10;99.90;4.30;101346;;;;567343;252;24163;-79
2022/11/26 10:15:20;;;;;;;26.30;14.93;;;5.20;99.90;4.40;101348;;;;567212;252;24108;-79
2022/11/26 10:18:02;;;;;;;30.20;13.70;;;5.30;99.90;4.50;101338;;;;566917;252;24129;-78
2022/11/26 10:20:33;;;;;;;23.20;13.07;;;5.40;99.90;4.60;101347;;;;566514;253;24104;-78
2022/11/26 10:23:11;;;;;;;26.03;13.53;;;5.50;99.90;4.60;101346;;;;567242;252;24103;-77
2022/11/26 10:25:44;;;;;;;29.13;14.63;;;5.50;99.90;4.70;101346;;;;567226;252;24119;-80
2022/11/26 10:28:21;;;;;;;26.07;14.73;;;5.60;99.90;4.70;101348;;;;567961;251;24125;-77
2022/11/26 10:30:58;;;;;;;24.50;13.03;;;5.60;99.90;4.70;101345;;;;565783;253;24143;-78
2022/11/26 10:33:30;;;;;;;24.30;14.73;;;5.60;99.90;4.70;101345;;;;567861;252;24115;-79
2022/11/26 10:35:59;;;;;;;30.27;15.30;;;5.60;99.90;4.80;101340;;;;555389;258;24131;-79
2022/11/26 10:38:27;;;;;;;25.30;14.70;;;5.60;99.90;4.80;101338;;;;567768;251;24113;-78
2022/11/26 10:40:54;;;;;;;33.70;14.83;;;5.60;99.90;4.80;101343;;;;567710;251;24179;-79
2022/11/26 10:43:23;;;;;;;23.17;14.10;;;5.70;99.90;4.80;101344;;;;567710;251;24133;-81
2022/11/26 10:45:51;;;;;;;23.53;12.60;;;5.70;99.90;4.90;101349;;;;567670;252;24116;-78
2022/11/26 10:48:22;;;;;;;25.20;14.83;;;5.70;99.90;4.90;101346;;;;567177;252;24101;-79
2022/11/26 10:51:05;;;;;;;23.97;14.23;;;5.80;99.90;4.90;101357;;;;567709;251;24178;-79
2022/11/26 10:53:56;;;;;;;24.43;13.90;;;5.80;99.90;4.90;101360;;;;567136;252;24125;-77
2022/11/26 10:56:36;;;;;;;24.27;14.80;;;5.80;99.90;4.90;101356;;;;567273;251;25168;-79
2022/11/26 10:59:04;;;;;;;24.37;13.47;;;5.80;99.90;5.00;101355;;;;567185;252;25177;-79
2022/11/26 11:01:38;;;;;;;24.77;13.80;;;5.80;99.90;5.00;101362;;;;567266;252;24140;-78
2022/11/26 11:04:06;;;;;;;22.57;13.90;;;5.80;99.90;5.00;101359;;;;567149;251;24133;-77
2022/11/26 11:06:45;;;;;;;26.60;14.33;;;5.90;99.90;5.00;101357;;;;551527;251;24140;-77
2022/11/26 11:09:32;;;;;;;21.93;13.50;;;5.90;99.90;5.00;101357;;;;566837;251;24101;-78
2022/11/26 11:12:19;;;;;;;22.07;12.83;;;5.80;99.90;5.00;101352;;;;567061;252;24109;-79
2022/11/26 11:14:48;;;;;;;25.10;12.83;;;5.80;99.90;5.00;101362;;;;567029;249;24122;-80
2022/11/26 11:17:31;;;;;;;25.30;14.37;;;5.80;99.90;5.00;101359;;;;567043;252;24127;-78
2022/11/26 11:19:59;;;;;;;21.37;13.40;;;5.90;99.90;5.10;101358;;;;567253;251;24106;-80
2022/11/26 11:22:27;;;;;;;23.53;12.93;;;5.90;99.90;5.10;101357;;;;566870;253;24107;-80
2022/11/26 11:24:55;;;;;;;24.53;12.30;;;5.90;99.90;5.10;101362;;;;567090;252;24158;-77